Time;durP1;ratioP1;P1;durP2;ratioP2;P2;SDS_P1;SDS_P2;PMS_P1;PMS_P2;Temp;Humidity;BMP_temperature;BMP_pressure;BME280_temperature;BME280_humidity;BME280_pressure;Samples;Min_cycle;Max_cycle;Signal;HPM_P1;HPM_P2
2022/11/24 00:01:14;;;;;;;6.60;2.00;;;;;;;6.58;86.29;99721.08;105519;1294;73104;-78
2022/11/24 00:03:42;;;;;;;5.00;2.10;;;;;;;6.57;86.49;99720.70;105604;1295;71034;-78
2022/11/24 00:06:14;;;;;;;4.70;1.70;;;;;;;6.56;86.68;99721.89;105495;1287;72968;-79
2022/11/24 00:08:44;;;;;;;4.40;1.70;;;;;;;6.56;86.57;99725.42;105548;1293;60708;-78
2022/11/24 00:11:14;;;;;;;5.20;1.80;;;;;;;6.56;86.88;99725.66;105530;1285;60666;-79
2022/11/24 00:13:41;;;;;;;4.50;1.60;;;;;;;6.55;86.93;99729.77;105475;1294;73524;-79
2022/11/24 00:16:16;;;;;;;5.20;1.40;;;;;;;6.53;87.25;99729.95;105546;1293;71022;-77
2022/11/24 00:18:48;;;;;;;5.90;1.60;;;;;;;6.51;87.42;99738.71;105449;1291;73825;-79
2022/11/24 00:21:18;;;;;;;5.40;1.80;;;;;;;6.49;87.44;99737.04;105478;1295;60303;-78
2022/11/24 00:23:46;;;;;;;3.30;1.60;;;;;;;6.47;87.68;99740.94;105474;1294;60093;-78
2022/11/24 00:26:14;;;;;;;6.20;1.50;;;;;;;6.44;87.97;99742.11;105635;1293;73711;-78
2022/11/24 00:28:42;;;;;;;5.60;1.70;;;;;;;6.45;87.78;99742.76;105600;1295;71065;-78
2022/11/24 00:31:29;;;;;;;5.30;1.70;;;;;;;6.45;87.81;99740.15;105319;1297;73647;-79
2022/11/24 00:33:58;;;;;;;4.60;1.60;;;;;;;6.45;87.74;99745.59;105464;1301;59419;-79
2022/11/24 00:36:28;;;;;;;4.10;1.70;;;;;;;6.44;87.51;99748.19;105369;1293;61287;-79
2022/11/24 00:38:57;;;;;;;5.00;1.60;;;;;;;6.43;87.74;99749.52;105362;1293;73069;-79
2022/11/24 00:41:25;;;;;;;4.60;1.60;;;;;;;6.43;87.56;99749.69;105507;1295;71556;-79
2022/11/24 00:43:55;;;;;;;4.40;1.60;;;;;;;6.40;87.56;99750.33;105456;1294;71849;-79
2022/11/24 00:46:24;;;;;;;6.10;1.60;;;;;;;6.39;87.66;99753.09;105610;1294;59643;-80
2022/11/24 00:48:52;;;;;;;4.80;1.80;;;;;;;6.37;87.87;99758.73;105492;1290;59001;-79
2022/11/24 00:51:21;;;;;;;5.00;1.70;;;;;;;6.35;87.79;99763.58;105392;1294;72958;-79
2022/11/24 00:53:48;;;;;;;6.40;1.80;;;;;;;6.35;87.55;99771.15;105501;1295;69804;-79
2022/11/24 00:56:15;;;;;;;5.10;1.90;;;;;;;6.34;87.85;99769.48;105486;1287;72536;-79
2022/11/24 00:58:41;;;;;;;3.70;1.30;;;;;;;6.32;87.82;99769.52;105499;1294;61650;-79
2022/11/24 01:01:11;;;;;;;4.70;1.60;;;;;;;6.29;88.15;99773.34;105472;1281;59014;-77
2022/11/24 01:03:38;;;;;;;3.80;1.80;;;;;;;6.28;87.96;99775.27;105518;1293;74193;-77
2022/11/24 01:06:20;;;;;;;5.20;1.60;;;;;;;6.25;87.97;99781.17;105461;1293;70774;-77
2022/11/24 01:08:47;;;;;;;6.70;1.70;;;;;;;6.23;88.16;99777.02;105487;1295;73461;-77
2022/11/24 01:11:22;;;;;;;4.50;1.90;;;;;;;6.21;88.01;99778.52;105500;1287;61466;-76
2022/11/24 01:13:53;;;;;;;5.50;1.70;;;;;;;6.17;87.94;99779.10;105491;1294;58960;-77
2022/11/24 01:16:21;;;;;;;4.70;1.90;;;;;;;6.13;88.05;99777.88;105443;1294;74182;-76
2022/11/24 01:18:48;;;;;;;4.30;1.50;;;;;;;6.10;88.09;99777.71;105488;1294;70635;-76
2022/11/24 01:21:16;;;;;;;4.20;1.80;;;;;;;6.06;88.15;99783.91;105324;1289;72109;-76
2022/11/24 01:23:43;;;;;;;5.00;2.20;;;;;;;6.04;88.30;99782.01;105444;1296;61056;-77
2022/11/24 01:26:11;;;;;;;4.50;1.80;;;;;;;6.01;88.33;99784.02;105465;1293;61675;-76
2022/11/24 01:28:38;;;;;;;5.10;1.90;;;;;;;6.00;88.58;99784.48;105361;1294;73399;-76
2022/11/24 01:31:13;;;;;;;5.70;1.90;;;;;;;6.00;88.76;99785.33;105600;1290;69258;-77
2022/11/24 01:33:39;;;;;;;4.90;1.90;;;;;;;6.00;89.07;99787.19;105432;1289;71909;-78
2022/11/24 01:36:06;;;;;;;5.20;2.00;;;;;;;6.02;89.28;99790.72;105450;1293;59682;-77
2022/11/24 01:38:32;;;;;;;6.70;2.10;;;;;;;6.04;89.46;99788.88;105524;1294;59177;-77
2022/11/24 01:41:23;;;;;;;6.60;2.40;;;;;;;6.08;89.72;99790.27;105587;1291;72967;-77
2022/11/24 01:43:51;;;;;;;3.40;1.80;;;;;;;6.11;89.71;99787.75;105502;1295;71902;-76
2022/11/24 01:46:22;;;;;;;5.60;2.00;;;;;;;6.12;89.72;99790.05;105474;1295;71804;-77
2022/11/24 01:49:31;;;;;;;5.80;2.00;;;;;;;6.13;89.44;99792.77;105393;1281;59808;-77
2022/11/24 01:52:03;;;;;;;6.40;2.30;;;;;;;6.13;89.83;99793.84;105430;1287;59902;-77
2022/11/24 01:54:36;;;;;;;6.50;2.20;;;;;;;6.15;89.87;99795.84;105431;1287;72510;-77
2022/11/24 01:57:10;;;;;;;3.40;2.10;;;;;;;6.14;89.98;99800.12;105498;1287;71275;-77
2022/11/24 01:59:39;;;;;;;4.50;2.00;;;;;;;6.12;90.22;99799.56;105501;1293;71877;-77
2022/11/24 02:02:07;;;;;;;7.00;2.50;;;;;;;6.12;90.44;99804.17;105515;1294;60244;-77
2022/11/24 02:04:34;;;;;;;4.70;2.30;;;;;;;6.12;90.57;99803.73;105614;1287;59694;-77
2022/11/24 02:07:04;;;;;;;7.10;2.50;;;;;;;6.13;91.01;99809.27;105517;1293;72941;-77
2022/11/24 02:09:59;;;;;;;5.80;2.50;;;;;;;6.16;91.10;99811.66;105525;1294;69865;-77
2022/11/24 02:12:27;;;;;;;7.20;2.60;;;;;;;6.19;91.48;99814.09;105447;1295;72443;-77
2022/11/24 02:14:55;;;;;;;7.30;2.30;;;;;;;6.24;91.36;99813.92;105512;1292;61556;-77
2022/11/24 02:17:21;;;;;;;8.70;2.60;;;;;;;6.30;91.55;99813.44;105486;1290;60153;-78
2022/11/24 02:20:19;;;;;;;5.80;2.40;;;;;;;6.36;91.25;99815.36;105390;1294;73497;-79
2022/11/24 02:22:53;;;;;;;6.90;2.30;;;;;;;6.44;91.05;99814.92;105507;1293;71000;-77
2022/11/24 02:25:30;;;;;;;4.30;2.20;;;;;;;6.49;90.75;99813.81;105463;1290;71712;-77
2022/11/24 02:27:59;;;;;;;8.40;2.20;;;;;;;6.53;90.61;99819.31;105478;1295;62316;-77
2022/11/24 02:30:26;;;;;;;7.00;2.40;;;;;;;6.58;90.40;99820.59;105457;1294;59078;-77
2022/11/24 02:32:53;;;;;;;7.70;2.40;;;;;;;6.63;90.21;99822.34;105358;1294;74147;-78
2022/11/24 02:35:20;;;;;;;8.10;2.50;;;;;;;6.65;90.02;99823.83;105466;1297;69982;-77
2022/11/24 02:37:48;;;;;;;7.80;2.60;;;;;;;6.68;89.88;99827.35;105510;1291;71669;-78
2022/11/24 02:40:23;;;;;;;6.60;2.70;;;;;;;6.70;90.01;99824.64;105495;1287;59933;-77
2022/11/24 02:42:57;;;;;;;7.50;2.40;;;;;;;6.71;89.67;99821.22;105512;1293;59631;-78
2022/11/24 02:45:25;;;;;;;7.50;2.40;;;;;;;6.71;89.73;99821.50;105322;1297;73760;-78
2022/11/24 02:47:52;;;;;;;6.40;2.20;;;;;;;6.72;89.53;99829.38;105492;1294;71018;-77
2022/11/24 02:50:18;;;;;;;6.20;2.40;;;;;;;6.73;89.76;99829.93;105619;1294;59757;-77
2022/11/24 02:52:45;;;;;;;5.30;2.40;;;;;;;6.73;89.56;99830.95;105592;1287;60124;-78
2022/11/24 02:55:11;;;;;;;5.00;2.40;;;;;;;6.74;89.65;99836.35;105517;1295;59037;-78
2022/11/24 02:57:38;;;;;;;6.10;2.30;;;;;;;6.72;89.78;99841.45;105615;1287;74980;-78
2022/11/24 03:00:05;;;;;;;8.40;2.60;;;;;;;6.72;89.71;99842.39;105625;1293;70635;-78
2022/11/24 03:02:34;;;;;;;6.30;2.40;;;;;;;6.73;89.83;99846.14;105492;1294;71443;-78
2022/11/24 03:05:01;;;;;;;7.00;2.20;;;;;;;6.74;89.79;99846.87;105572;1291;59666;-78
2022/11/24 03:07:27;;;;;;;5.90;2.70;;;;;;;6.76;89.53;99849.52;105508;1294;59312;-78
2022/11/24 03:09:54;;;;;;;8.80;2.70;;;;;;;6.78;89.57;99849.61;105425;1295;74500;-77
2022/11/24 03:12:20;;;;;;;5.70;2.50;;;;;;;6.83;89.68;99855.60;105516;1294;59145;-77
2022/11/24 03:14:47;;;;;;;7.40;2.30;;;;;;;6.86;89.49;99853.50;105465;1294;71137;-78
2022/11/24 03:17:13;;;;;;;7.70;2.60;;;;;;;6.87;89.26;99855.61;105577;1294;59107;-77
2022/11/24 03:19:43;;;;;;;8.90;2.70;;;;;;;6.90;89.46;99858.46;105468;1295;59066;-78
2022/11/24 03:22:11;;;;;;;5.00;2.30;;;;;;;6.92;89.03;99859.24;105500;1295;72611;-78
2022/11/24 03:24:38;;;;;;;8.70;2.40;;;;;;;6.94;88.89;99862.77;105471;1293;69124;-78
2022/11/24 03:27:05;;;;;;;5.90;2.50;;;;;;;6.96;89.20;99866.21;105582;1287;72077;-78
2022/11/24 03:29:31;;;;;;;6.30;3.00;;;;;;;6.98;88.76;99870.98;105488;1295;60234;-78
2022/11/24 03:31:58;;;;;;;6.40;2.60;;;;;;;7.00;88.82;99874.98;105620;1291;60317;-78
2022/11/24 03:34:25;;;;;;;7.80;2.90;;;;;;;7.02;88.93;99874.56;105468;1285;73069;-78
2022/11/24 03:36:51;;;;;;;7.20;2.70;;;;;;;7.02;88.58;99875.28;105513;1294;72844;-78
2022/11/24 03:39:18;;;;;;;8.00;3.10;;;;;;;7.04;88.70;99873.50;105572;1292;59030;-78
2022/11/24 03:41:44;;;;;;;9.40;2.90;;;;;;;7.05;88.59;99876.73;105576;1292;58955;-77
2022/11/24 03:44:11;;;;;;;6.30;2.90;;;;;;;7.06;88.66;99873.15;105512;1287;58988;-77
2022/11/24 03:46:37;;;;;;;5.90;2.50;;;;;;;7.06;88.67;99877.00;105602;1294;75391;-78
2022/11/24 03:49:04;;;;;;;7.40;2.70;;;;;;;7.09;88.57;99874.10;105453;1293;70088;-78
2022/11/24 03:51:31;;;;;;;7.40;2.50;;;;;;;7.12;88.68;99882.40;105338;1297;71268;-78
2022/11/24 03:53:57;;;;;;;7.00;2.30;;;;;;;7.13;88.30;99875.06;105495;1288;59370;-78
2022/11/24 03:56:23;;;;;;;5.80;2.50;;;;;;;7.12;88.05;99878.83;105516;1287;58958;-78
2022/11/24 03:58:50;;;;;;;10.60;2.70;;;;;;;7.13;88.20;99880.80;105597;1285;59685;-78
2022/11/24 04:01:17;;;;;;;7.20;2.90;;;;;;;7.14;88.38;99885.77;105467;1290;71401;-78
2022/11/24 04:03:44;;;;;;;7.40;2.70;;;;;;;7.15;88.40;99885.50;105427;1293;72367;-78
2022/11/24 04:06:10;;;;;;;8.70;2.70;;;;;;;7.17;88.44;99884.96;105584;1295;60332;-78
2022/11/24 04:08:37;;;;;;;8.90;2.70;;;;;;;7.20;88.34;99893.22;105618;1290;60858;-78
2022/11/24 04:11:07;;;;;;;7.70;2.90;;;;;;;7.22;88.40;99893.88;105459;1296;74052;-78
2022/11/24 04:13:33;;;;;;;9.00;3.30;;;;;;;7.25;88.73;99895.15;105457;1288;69265;-77
2022/11/24 04:16:05;;;;;;;9.60;2.70;;;;;;;7.28;88.53;99900.05;105561;1287;58981;-77
2022/11/24 04:18:31;;;;;;;7.50;2.50;;;;;;;7.29;88.54;99900.48;105462;1293;59434;-78
2022/11/24 04:20:58;;;;;;;7.00;2.30;;;;;;;7.30;88.38;99909.90;105461;1287;58960;-78
2022/11/24 04:23:24;;;;;;;7.50;2.50;;;;;;;7.32;88.42;99908.46;105490;1291;74091;-78
2022/11/24 04:25:51;;;;;;;8.30;2.40;;;;;;;7.34;88.86;99910.59;105445;1290;59262;-78
2022/11/24 04:28:17;;;;;;;7.10;2.20;;;;;;;7.37;89.03;99910.76;105493;1286;59000;-78
2022/11/24 04:30:44;;;;;;;7.60;2.30;;;;;;;7.38;88.80;99908.64;105550;1294;59397;-78
2022/11/24 04:33:14;;;;;;;9.10;2.30;;;;;;;7.39;88.79;99908.73;105476;1294;60059;-78
2022/11/24 04:35:40;;;;;;;7.20;2.20;;;;;;;7.38;88.63;99908.98;105461;1295;73604;-78
2022/11/24 04:38:07;;;;;;;6.20;2.20;;;;;;;7.38;88.57;99907.09;105583;1291;70031;-78
2022/11/24 04:40:34;;;;;;;7.90;2.20;;;;;;;7.34;88.64;99910.84;105494;1294;70688;-77
2022/11/24 04:43:00;;;;;;;6.20;2.50;;;;;;;7.32;88.84;99913.23;105566;1287;60210;-77
2022/11/24 04:45:27;;;;;;;8.90;2.40;;;;;;;7.30;88.76;99916.39;105507;1294;59481;-77
2022/11/24 04:47:53;;;;;;;8.70;2.50;;;;;;;7.31;88.69;99924.92;105574;1288;75264;-77
2022/11/24 04:50:20;;;;;;;11.60;3.20;;;;;;;7.33;88.90;99928.39;105508;1294;59326;-77
2022/11/24 04:52:47;;;;;;;10.00;2.70;;;;;;;7.34;88.90;99933.02;105582;1295;70818;-77
2022/11/24 04:55:13;;;;;;;7.80;3.10;;;;;;;7.34;88.62;99939.09;105596;1290;59444;-77
2022/11/24 04:57:40;;;;;;;9.20;3.30;;;;;;;7.35;88.66;99944.33;105606;1287;59349;-77
2022/11/24 05:00:10;;;;;;;8.90;3.30;;;;;;;7.37;88.23;99946.08;105520;1293;74153;-77
2022/11/24 05:02:37;;;;;;;9.00;3.60;;;;;;;7.38;88.30;99945.25;105443;1296;69805;-77
2022/11/24 05:05:07;;;;;;;8.60;3.30;;;;;;;7.39;88.38;99947.58;105433;1295;70701;-77
2022/11/24 05:07:33;;;;;;;7.30;3.60;;;;;;;7.40;88.37;99949.27;105505;1294;61308;-77
2022/11/24 05:12:53;;;;;;;10.80;3.00;;;;;;;7.38;87.94;99955.31;105520;1286;72590;-77
2022/11/24 05:15:20;;;;;;;8.40;3.00;;;;;;;7.33;88.01;99954.77;105485;1294;68832;-77
2022/11/24 05:17:46;;;;;;;10.50;2.90;;;;;;;7.29;87.66;99957.63;105572;1292;59211;-78
2022/11/24 05:20:12;;;;;;;8.20;2.90;;;;;;;7.25;88.01;99961.29;105323;1297;59669;-78
2022/11/24 05:22:39;;;;;;;7.40;2.60;;;;;;;7.18;87.66;99964.56;105422;1293;59044;-77
2022/11/24 05:25:06;;;;;;;9.00;2.60;;;;;;;7.10;88.32;99963.95;105469;1294;59209;-77
2022/11/24 05:27:32;;;;;;;6.00;2.40;;;;;;;7.04;88.20;99966.98;105621;1287;59044;-77
2022/11/24 05:29:58;;;;;;;7.30;2.40;;;;;;;6.97;88.42;99966.85;105325;1296;59031;-77
2022/11/24 05:32:25;;;;;;;9.10;2.50;;;;;;;6.92;88.50;99970.54;105469;1295;60066;-77
2022/11/24 05:34:52;;;;;;;8.90;3.40;;;;;;;6.87;88.48;99965.50;105472;1287;58915;-77
2022/11/24 05:37:20;;;;;;;6.90;2.80;;;;;;;6.82;88.99;99966.05;105594;1288;74655;-78
2022/11/24 05:39:46;;;;;;;8.10;2.90;;;;;;;6.75;89.34;99968.05;105477;1294;68776;-78
2022/11/24 05:44:58;;;;;;;9.30;2.80;;;;;;;6.69;89.86;99980.47;105526;1295;59664;-78
2022/11/24 05:47:25;;;;;;;7.10;2.80;;;;;;;6.68;90.44;99981.66;105563;1293;61058;-78
2022/11/24 05:49:51;;;;;;;7.70;2.70;;;;;;;6.67;90.33;99985.09;105455;1290;73462;-78
2022/11/24 05:52:18;;;;;;;10.00;3.00;;;;;;;6.67;90.47;99988.05;105593;1287;58981;-78
2022/11/24 05:54:44;;;;;;;9.00;2.60;;;;;;;6.65;90.99;99991.29;105607;1294;59296;-78
2022/11/24 05:57:12;;;;;;;8.00;2.70;;;;;;;6.67;90.88;99992.40;105491;1294;59974;-78
2022/11/24 05:59:38;;;;;;;9.60;2.90;;;;;;;6.69;90.97;99986.93;105514;1294;59353;-78
2022/11/24 06:02:04;;;;;;;9.30;2.60;;;;;;;6.71;90.96;99991.11;105593;1294;60645;-77
2022/11/24 06:04:31;;;;;;;8.80;2.60;;;;;;;6.73;91.13;99995.69;105611;1287;60917;-78
2022/11/24 06:06:58;;;;;;;10.10;2.50;;;;;;;6.73;91.04;100005.44;105592;1293;72837;-78
2022/11/24 06:09:25;;;;;;;11.60;2.90;;;;;;;6.75;91.02;100004.63;105434;1293;61263;-78
2022/11/24 06:11:52;;;;;;;10.00;3.10;;;;;;;6.75;90.68;100006.48;105566;1293;58970;-78
2022/11/24 06:14:18;;;;;;;8.20;3.00;;;;;;;6.75;90.65;100013.38;105606;1285;59499;-78
2022/11/24 06:16:46;;;;;;;11.70;2.70;;;;;;;6.74;90.65;100011.14;105597;1287;59229;-78
2022/11/24 06:19:12;;;;;;;10.80;2.70;;;;;;;6.74;90.61;100015.84;105355;1286;71410;-78
2022/11/24 06:21:41;;;;;;;11.10;2.90;;;;;;;6.75;90.16;100015.65;105524;1285;59244;-78
2022/11/24 06:24:08;;;;;;;8.10;2.90;;;;;;;6.74;90.22;100018.42;105557;1294;60439;-77
2022/11/24 06:26:34;;;;;;;8.10;3.20;;;;;;;6.72;90.37;100018.82;105491;1295;59363;-78
2022/11/24 06:29:03;;;;;;;9.50;3.20;;;;;;;6.70;90.27;100020.44;105609;1293;71187;-78
2022/11/24 06:31:30;;;;;;;8.90;3.00;;;;;;;6.67;90.23;100023.54;105421;1285;255007;-78
2022/11/24 06:33:58;;;;;;;8.30;3.40;;;;;;;6.65;90.23;100027.33;105529;1285;61285;-78
2022/11/24 06:36:26;;;;;;;9.30;2.90;;;;;;;6.61;90.84;100027.89;105466;1294;60134;-78
2022/11/24 06:38:53;;;;;;;10.40;3.20;;;;;;;6.57;90.50;100032.86;105637;1287;74742;-78
2022/11/24 06:41:19;;;;;;;9.90;3.10;;;;;;;6.53;90.70;100036.69;105456;1289;70842;-78
2022/11/24 06:43:46;;;;;;;9.00;3.10;;;;;;;6.48;90.53;100035.27;105508;1291;58390;-78
2022/11/24 06:46:13;;;;;;;9.30;3.10;;;;;;;6.42;90.82;100036.38;105479;1292;60516;-77
2022/11/24 06:48:39;;;;;;;9.50;3.40;;;;;;;6.38;90.91;100035.63;105604;1294;59022;-73
2022/11/24 06:51:09;;;;;;;12.20;3.40;;;;;;;6.37;91.05;100036.58;105603;1291;59215;-73
2022/11/24 06:53:39;;;;;;;11.60;3.20;;;;;;;6.37;91.11;100033.45;105546;1287;69496;-74
2022/11/24 06:56:09;;;;;;;10.20;3.60;;;;;;;6.38;91.13;100035.79;105320;1289;72099;-74
2022/11/24 06:58:44;;;;;;;9.20;3.10;;;;;;;6.39;90.95;100039.90;105461;1290;60951;-74
2022/11/24 07:01:19;;;;;;;10.20;3.60;;;;;;;6.41;90.90;100042.84;105607;1287;58978;-74
2022/11/24 07:03:47;;;;;;;7.60;3.00;;;;;;;6.41;90.87;100043.89;105357;1288;74745;-73
2022/11/24 07:06:15;;;;;;;6.80;3.30;;;;;;;6.40;91.10;100044.33;105370;1294;71699;-74
2022/11/24 07:08:41;;;;;;;11.30;3.70;;;;;;;6.41;90.87;100047.18;105370;1286;71274;-73
2022/11/24 07:11:14;;;;;;;9.50;3.50;;;;;;;6.42;90.96;100050.75;105577;1286;59657;-73
2022/11/24 07:13:42;;;;;;;7.20;3.00;;;;;;;6.43;91.04;100048.23;105500;1294;59604;-74
2022/11/24 07:16:20;;;;;;;8.60;3.30;;;;;;;6.43;90.73;100050.15;105413;1295;73282;-74
2022/11/24 07:18:48;;;;;;;8.90;3.40;;;;;;;6.44;90.80;100052.04;105562;1287;69610;-74
2022/11/24 07:21:15;;;;;;;11.50;3.70;;;;;;;6.44;90.72;100053.58;105543;1287;72938;-73
2022/11/24 07:23:42;;;;;;;10.90;4.10;;;;;;;6.43;91.09;100060.59;105640;1294;59312;-74
2022/11/24 07:26:09;;;;;;;11.50;4.10;;;;;;;6.41;91.01;100061.27;105565;1287;60065;-74
2022/11/24 07:28:36;;;;;;;9.60;3.50;;;;;;;6.39;91.07;100068.38;105560;1288;73133;-73
2022/11/24 07:31:12;;;;;;;10.80;3.10;;;;;;;6.37;91.31;100076.29;105598;1293;70160;-74
2022/11/24 07:33:39;;;;;;;11.30;3.70;;;;;;;6.36;91.10;100076.80;105527;1294;71979;-74
2022/11/24 07:36:07;;;;;;;9.90;3.30;;;;;;;6.36;91.14;100077.15;105463;1290;61090;-73
2022/11/24 07:38:34;;;;;;;9.10;3.60;;;;;;;6.37;91.21;100082.55;105491;1294;58934;-74
2022/11/24 07:41:06;;;;;;;8.70;3.30;;;;;;;6.40;91.44;100088.48;105353;1294;75195;-74
2022/11/24 07:43:34;;;;;;;9.60;3.50;;;;;;;6.42;91.54;100091.42;105638;1277;69536;-73
2022/11/24 07:46:01;;;;;;;9.60;3.20;;;;;;;6.43;91.53;100096.06;105549;1294;70203;-74
2022/11/24 07:48:27;;;;;;;9.40;3.10;;;;;;;6.44;91.46;100097.61;105508;1287;61852;-74
2022/11/24 07:50:54;;;;;;;13.10;3.50;;;;;;;6.48;91.51;100102.21;105637;1286;59296;-74
2022/11/24 07:53:21;;;;;;;9.60;3.40;;;;;;;6.50;91.35;100104.57;105644;1287;75297;-73
2022/11/24 07:55:56;;;;;;;12.50;3.30;;;;;;;6.54;91.62;100109.46;105637;1295;70044;-74
2022/11/24 07:58:23;;;;;;;10.70;3.00;;;;;;;6.58;91.42;100111.50;105579;1287;71690;-74
2022/11/24 08:00:56;;;;;;;9.10;3.20;;;;;;;6.61;91.37;100120.29;105582;1294;61328;-74
2022/11/24 08:03:24;;;;;;;7.40;3.10;;;;;;;6.65;91.71;100119.84;105517;1295;60352;-74
2022/11/24 08:05:55;;;;;;;10.00;2.80;;;;;;;6.70;91.35;100120.55;105551;1294;74163;-73
2022/11/24 08:08:41;;;;;;;10.50;3.20;;;;;;;6.76;91.42;100123.63;105546;1288;70224;-74
2022/11/24 08:11:11;;;;;;;11.90;3.10;;;;;;;6.83;91.12;100126.70;105595;1293;72520;-73
2022/11/24 08:13:38;;;;;;;9.30;3.00;;;;;;;6.92;91.19;100126.27;105502;1297;59969;-74
2022/11/24 08:16:07;;;;;;;8.90;2.70;;;;;;;7.01;91.03;100129.89;105536;1295;60897;-73
2022/11/24 08:18:35;;;;;;;9.80;2.90;;;;;;;7.11;90.84;100123.36;105357;1289;73572;-74
2022/11/24 08:21:05;;;;;;;10.80;3.00;;;;;;;7.24;90.76;100127.95;105420;1297;69999;-74
2022/11/24 08:23:32;;;;;;;13.50;3.40;;;;;;;7.33;90.46;100126.79;105515;1294;71124;-73
2022/11/24 08:26:07;;;;;;;8.10;2.70;;;;;;;7.43;90.00;100131.75;105421;1288;59934;-73
2022/11/24 08:28:34;;;;;;;8.30;2.70;;;;;;;7.50;89.70;100134.56;105534;1297;58834;-73
2022/11/24 08:31:06;;;;;;;12.50;3.20;;;;;;;7.57;89.60;100137.39;105562;1294;74469;-73
2022/11/24 08:33:33;;;;;;;12.10;3.30;;;;;;;7.64;89.73;100143.23;105572;1294;69006;-74
2022/11/24 08:36:05;;;;;;;8.50;2.90;;;;;;;7.70;89.79;100147.12;105495;1298;71439;-73
2022/11/24 08:38:32;;;;;;;10.90;3.10;;;;;;;7.77;89.13;100149.73;105488;1291;60240;-73
2022/11/24 08:41:03;;;;;;;10.10;3.00;;;;;;;7.84;88.89;100152.34;105500;1290;60001;-74
2022/11/24 08:43:30;;;;;;;10.60;2.90;;;;;;;7.90;88.46;100155.58;105626;1294;75285;-73
2022/11/24 08:46:12;;;;;;;11.50;3.60;;;;;;;7.94;88.48;100161.93;105538;1294;68658;-74
2022/11/24 08:48:40;;;;;;;10.70;2.90;;;;;;;8.00;88.71;100164.98;105491;1294;73297;-73
2022/11/24 08:51:09;;;;;;;10.70;3.50;;;;;;;8.06;88.30;100166.93;105629;1291;60672;-73
2022/11/24 08:53:36;;;;;;;9.60;2.80;;;;;;;8.13;88.02;100167.73;105532;1294;59679;-73
2022/11/24 08:56:03;;;;;;;7.80;2.50;;;;;;;8.17;87.67;100170.00;105529;1293;74493;-74
2022/11/24 08:58:30;;;;;;;13.10;3.60;;;;;;;8.21;87.47;100176.41;105591;1293;70107;-73
2022/11/24 09:01:06;;;;;;;11.90;3.30;;;;;;;8.26;87.22;100179.21;105558;1294;72409;-73
2022/11/24 09:03:33;;;;;;;13.00;3.30;;;;;;;8.32;87.01;100188.88;105522;1294;60824;-73
2022/11/24 09:06:01;;;;;;;10.80;2.90;;;;;;;8.39;86.96;100193.42;105489;1288;59327;-73
2022/11/24 09:08:31;;;;;;;9.90;2.70;;;;;;;8.48;87.03;100198.38;105579;1294;73154;-73
2022/11/24 09:10:59;;;;;;;13.20;3.30;;;;;;;8.54;86.45;100199.14;105532;1287;69831;-73
2022/11/24 09:13:26;;;;;;;11.10;3.00;;;;;;;8.55;85.96;100200.40;105647;1290;72876;-73
2022/11/24 09:15:52;;;;;;;10.80;3.10;;;;;;;8.57;85.71;100199.70;105607;1292;59328;-73
2022/11/24 09:18:18;;;;;;;10.70;2.60;;;;;;;8.57;85.55;100202.34;105592;1294;59012;-73
2022/11/24 09:20:45;;;;;;;12.90;3.00;;;;;;;8.61;85.63;100202.94;105637;1294;59455;-73
2022/11/24 09:23:11;;;;;;;11.80;3.60;;;;;;;8.66;85.48;100205.15;105631;1293;59490;-73
2022/11/24 09:25:38;;;;;;;12.20;3.50;;;;;;;8.70;85.15;100208.64;105524;1297;59023;-73
2022/11/24 09:28:04;;;;;;;10.60;3.20;;;;;;;8.73;85.38;100208.90;105625;1294;59340;-74
2022/11/24 09:30:31;;;;;;;13.30;3.10;;;;;;;8.79;85.03;100208.23;105619;1291;59078;-73
2022/11/24 09:32:57;;;;;;;11.20;3.00;;;;;;;8.86;84.72;100209.40;105627;1291;59485;-73
2022/11/24 09:35:24;;;;;;;12.20;3.10;;;;;;;8.93;84.54;100212.12;105542;1286;59418;-73
2022/11/24 09:37:50;;;;;;;10.80;3.00;;;;;;;9.00;84.15;100207.64;105403;1297;59109;-73
2022/11/24 09:40:17;;;;;;;14.00;3.10;;;;;;;9.05;83.94;100206.98;105633;1295;58912;-73
2022/11/24 09:42:58;;;;;;;12.50;3.10;;;;;;;9.10;84.13;100206.11;105589;1295;58904;-73
2022/11/24 09:45:39;;;;;;;11.20;2.70;;;;;;;9.22;83.72;100203.73;105565;1281;73186;-73
2022/11/24 09:48:34;;;;;;;12.80;2.90;;;;;;;9.32;83.47;100209.73;105487;1298;69992;-73
2022/11/24 09:51:03;;;;;;;11.80;2.70;;;;;;;9.40;83.12;100212.73;105554;1293;71187;-73
2022/11/24 09:53:29;;;;;;;11.00;2.30;;;;;;;9.46;82.42;100214.06;105643;1294;59745;-73
2022/11/24 09:56:01;;;;;;;12.90;3.20;;;;;;;9.49;82.03;100211.58;105607;1293;58979;-73
2022/11/24 09:58:49;;;;;;;8.70;2.30;;;;;;;9.54;81.74;100214.44;105314;1294;74793;-73
2022/11/24 10:01:18;;;;;;;10.20;2.50;;;;;;;9.63;81.78;100215.39;105502;1296;71243;-73
2022/11/24 10:03:53;;;;;;;7.80;2.20;;;;;;;9.66;81.23;100214.27;105637;1293;72810;-73
2022/11/24 10:06:36;;;;;;;8.70;2.20;;;;;;;9.68;81.02;100213.14;105591;1295;61738;-74
2022/11/24 10:09:14;;;;;;;10.30;2.90;;;;;;;9.73;81.00;100218.92;105575;1294;58958;-73
2022/11/24 10:12:14;;;;;;;8.70;2.10;;;;;;;9.85;80.68;100221.63;105468;1293;74452;-73
2022/11/24 10:15:09;;;;;;;10.60;2.20;;;;;;;9.97;80.37;100226.16;105642;1278;71285;-73
2022/11/24 10:18:22;;;;;;;11.60;2.70;;;;;;;10.06;79.90;100225.14;105523;1295;71119;-73
2022/11/24 10:21:22;;;;;;;6.30;2.00;;;;;;;10.20;79.88;100226.77;105478;1283;60441;-73
2022/11/24 10:24:07;;;;;;;9.50;2.10;;;;;;;10.33;79.42;100230.59;105597;1288;59647;-73
2022/11/24 10:26:43;;;;;;;9.00;2.20;;;;;;;10.37;78.78;100229.89;105627;1292;74191;-73
2022/11/24 10:29:19;;;;;;;10.70;2.40;;;;;;;10.41;78.81;100227.70;105630;1286;70827;-73
2022/11/24 10:31:51;;;;;;;10.10;2.70;;;;;;;10.43;78.94;100230.71;105593;1294;72231;-73
2022/11/24 10:34:24;;;;;;;10.40;2.70;;;;;;;10.48;79.07;100234.73;105475;1285;61290;-73
2022/11/24 10:37:05;;;;;;;9.90;2.90;;;;;;;10.56;79.10;100235.55;105581;1294;59000;-73
2022/11/24 10:39:49;;;;;;;9.80;2.30;;;;;;;10.56;77.90;100241.05;105653;1295;73096;-73
2022/11/24 10:42:36;;;;;;;10.10;2.50;;;;;;;10.58;78.16;100240.55;105550;1291;70673;-73
2022/11/24 10:45:15;;;;;;;9.50;2.00;;;;;;;10.63;78.18;100239.67;105634;1285;71872;-73
2022/11/24 10:47:42;;;;;;;11.10;2.70;;;;;;;10.64;77.82;100244.05;105513;1301;60480;-73
2022/11/24 10:50:25;;;;;;;10.60;2.80;;;;;;;10.61;77.62;100242.15;105557;1293;59288;-73
2022/11/24 10:53:07;;;;;;;9.80;2.30;;;;;;;10.68;77.95;100242.77;105485;1297;74628;-73
2022/11/24 10:55:55;;;;;;;11.30;2.60;;;;;;;10.70;77.70;100243.22;105548;1285;69444;-73
2022/11/24 10:58:30;;;;;;;12.40;2.90;;;;;;;10.69;77.14;100241.90;105642;1287;74085;-73
2022/11/24 11:01:12;;;;;;;10.00;2.40;;;;;;;10.76;77.31;100238.27;105518;1295;60840;-73
2022/11/24 11:03:47;;;;;;;9.60;2.40;;;;;;;10.93;76.73;100246.65;105680;1290;59472;-74
2022/11/24 11:06:22;;;;;;;9.70;2.40;;;;;;;11.02;75.96;100248.21;105574;1294;74461;-74
2022/11/24 11:08:49;;;;;;;8.40;2.60;;;;;;;11.07;75.82;100244.42;105577;1287;70263;-74
2022/11/24 11:11:27;;;;;;;12.90;2.80;;;;;;;11.24;75.79;100248.06;105495;1295;72857;-74
2022/11/24 11:13:59;;;;;;;10.60;2.50;;;;;;;11.47;74.51;100249.00;105454;1289;60462;-74
2022/11/24 11:16:42;;;;;;;12.50;2.50;;;;;;;11.81;73.70;100251.89;105483;1295;61136;-74
2022/11/24 11:19:35;;;;;;;11.90;2.40;;;;;;;12.22;72.06;100249.14;105562;1295;73710;-74
2022/11/24 11:22:27;;;;;;;10.40;2.50;;;;;;;12.75;70.24;100246.70;105561;1293;69894;-74
2022/11/24 11:25:16;;;;;;;10.40;2.50;;;;;;;13.06;69.17;100249.92;105534;1287;71770;-73
2022/11/24 11:27:43;;;;;;;8.30;2.20;;;;;;;13.32;68.27;100253.84;105603;1286;61295;-73
2022/11/24 11:30:17;;;;;;;10.10;2.60;;;;;;;13.51;67.38;100255.45;105558;1287;60201;-73
2022/11/24 11:33:20;;;;;;;7.30;2.20;;;;;;;13.63;65.82;100259.70;105596;1293;74606;-73
2022/11/24 11:36:12;;;;;;;8.50;2.30;;;;;;;13.91;65.83;100260.88;105571;1291;71041;-72
2022/11/24 11:38:40;;;;;;;9.30;2.50;;;;;;;14.14;64.06;100263.98;105527;1294;71364;-72
2022/11/24 11:41:18;;;;;;;7.80;2.30;;;;;;;14.35;62.79;100267.05;105538;1293;60435;-72
2022/11/24 11:43:48;;;;;;;7.60;2.20;;;;;;;14.74;63.03;100262.45;105632;1293;58824;-71
2022/11/24 11:46:15;;;;;;;8.80;2.20;;;;;;;14.96;61.87;100262.35;105679;1295;73105;-72
2022/11/24 11:48:45;;;;;;;10.80;2.50;;;;;;;14.64;61.20;100269.64;105669;1291;71065;-73